Terminal Aerodrome Forecast
Issued by NWS Twin Cities, MN

Home | Current Version | Previous Version | Text Only | Print | Product List | Glossary On
Versions: 1 2 3 4 5 6 7 8 9 10 11 12 13 14 15 16 17 18
000
FTUS43 KMPX 192300
TAFSTC
TAF
KSTC 192339Z 2000/2024 29014KT P6SM FEW025 BKN035
      TEMPO 2000/2002 6SM -SHSN
     FM200500 27007KT P6SM SCT030
     FM201400 30010G15KT P6SM FEW030 SCT040=

USA.gov is the U.S. government's official web portal to all federal, state and local government web resources and services.